KMUO/MUO METAR and TAF weather

Enter ICAO airport designator
Station Type Date Time Source
KMUO METAR 2021/05/11 21:58 UTC NOAA

KMUO 112158Z AUTO 34012KT 10SM CLR 21/M07 A3009 RMK AO2 SLP186 T02061070 $


Station Type Date Time Source
KMUO Decoded METAR 2021/05/11 21:58 UTC NOAA

Mountain Home Air Force Base, ID, United States (KMUO) 43-03N 115-52W
May 11, 2021 - 05:58 PM EDT / 2021.05.11 2158 UTC
Wind: from the NNW (340 degrees) at 14 MPH (12 KT):0
Visibility: 10 mile(s):0
Sky conditions: clear
Temperature: 69.1 F (20.6 C)
Dew Point: 19.4 F (-7.0 C)
Relative Humidity: 14%
Pressure (altimeter): 30.09 in. Hg (1018 hPa)
ob: KMUO 112158Z AUTO 34012KT 10SM CLR 21/M07 A3009 RMK AO2 SLP186 T02061070
cycle: 22

Station Type Date Time Source
KMUO TAF 2021/05/11 21:50 UTC NOAA

TAF
AMD KMUO 112138Z 1121/1224 32012G18KT 9999 FEW100 QNH3006INS
TEMPO 1122/1202 29015G25KT 510005
BECMG 1205/1206 VRB06KT 9999 FEW090 FEW200 QNH3009INS
BECMG 1214/1215 12012KT 9999 FEW100 SCT180 QNH2996INS TX22/1123Z TN07/1212Z

Example: see airport list